createdAt,value
2018-08-07T00:00:05.020Z,75.23
2018-08-07T00:01:04.787Z,75.52
2018-08-07T00:02:05.074Z,75.42
2018-08-07T00:03:05.095Z,75.81
2018-08-07T00:04:05.119Z,75.32
2018-08-07T00:05:05.143Z,75.32
2018-08-07T00:06:19.827Z,75.13
2018-08-07T00:07:05.193Z,75.04
2018-08-07T00:08:05.215Z,75.81
2018-08-07T00:09:05.240Z,75.32
2018-08-07T00:10:05.267Z,75.23
2018-08-07T00:11:05.033Z,75.32
2018-08-07T00:12:05.059Z,75.23
2018-08-07T00:13:05.337Z,75.23
2018-08-07T00:14:05.363Z,75.32
2018-08-07T00:15:05.397Z,76.09
2018-08-07T00:16:05.412Z,75.9
2018-08-07T00:18:05.466Z,76.34
2018-08-07T00:19:05.486Z,76.15
2018-08-07T00:20:05.511Z,76.15
2018-08-07T00:21:05.535Z,76.15
2018-08-07T00:22:20.222Z,75.96
2018-08-07T00:23:05.326Z,76.15
2018-08-07T00:24:05.623Z,76.54
2018-08-07T00:25:05.632Z,76.92
2018-08-07T00:26:05.658Z,76.64
2018-08-07T00:27:05.681Z,76.73
2018-08-07T00:28:05.706Z,77.01
2018-08-07T00:29:05.731Z,77.31
2018-08-07T00:30:05.756Z,76.92
2018-08-07T00:31:05.880Z,77.01
2018-08-07T00:32:05.809Z,76.82
2018-08-07T00:33:05.829Z,76.44
2018-08-07T00:34:05.854Z,76.92
2018-08-07T00:35:05.880Z,76.82
2018-08-07T00:36:05.645Z,76.64
2018-08-07T00:37:20.590Z,77.01
2018-08-07T00:38:05.953Z,76.64
2018-08-07T00:39:05.979Z,76.73
2018-08-07T00:40:06.002Z,76.82
2018-08-07T00:41:06.026Z,77.31
2018-08-07T00:42:05.795Z,76.82
2018-08-07T00:43:06.078Z,77.01
2018-08-07T00:44:06.096Z,76.92
2018-08-07T00:45:06.123Z,77.01
2018-08-07T00:46:06.145Z,76.64
2018-08-07T00:47:06.173Z,77.11
2018-08-07T00:48:06.203Z,77.78
2018-08-07T00:49:06.220Z,77.5
2018-08-07T00:50:06.304Z,77.4
2018-08-07T00:51:06.278Z,78.36
2018-08-07T00:52:06.295Z,78.08
2018-08-07T00:53:06.316Z,78.36
2018-08-07T00:54:06.343Z,77.5
2018-08-07T00:55:06.371Z,77.88
2018-08-07T00:56:06.134Z,78.36
2018-08-07T00:57:06.157Z,78.42
2018-08-07T00:58:06.440Z,78.61
2018-08-07T00:59:06.465Z,78.99
2018-08-07T01:00:06.231Z,78.99
2018-08-07T01:01:06.510Z,78.99
2018-08-07T01:03:06.565Z,79.19
2018-08-07T01:04:06.587Z,79.96
2018-08-07T01:05:06.610Z,79.67
2018-08-07T01:06:06.634Z,79.76
2018-08-07T01:08:06.688Z,80.05
2018-08-07T01:09:21.368Z,79.96
2018-08-07T01:10:06.731Z,80.05
2018-08-07T01:11:06.498Z,79.76
2018-08-07T01:12:06.528Z,80.43
2018-08-07T01:13:06.802Z,80.63
2018-08-07T01:14:06.828Z,80.34
2018-08-07T01:15:06.854Z,79.47
2018-08-07T01:16:06.876Z,80.24
2018-08-07T01:17:06.900Z,79.57
2018-08-07T01:18:06.926Z,79.47
2018-08-07T01:19:06.948Z,78.99
2018-08-07T01:20:06.979Z,79.47
2018-08-07T01:21:06.997Z,80.05
2018-08-07T01:22:07.022Z,78.8
2018-08-07T01:23:07.045Z,79.76
2018-08-07T01:24:07.071Z,79.67
2018-08-07T01:25:21.756Z,79.86
2018-08-07T01:26:07.130Z,79.47
2018-08-07T01:27:07.465Z,79.09
2018-08-07T01:28:07.169Z,78.9
2018-08-07T01:29:07.191Z,78.52
2018-08-07T01:31:07.238Z,78.8
2018-08-07T01:32:07.266Z,78.99
2018-08-07T01:33:07.307Z,78.9
2018-08-07T01:34:07.057Z,78.61
2018-08-07T01:35:07.345Z,78.42
2018-08-07T01:36:07.364Z,78.7
2018-08-07T01:37:07.389Z,78.52
2018-08-07T01:38:07.411Z,79.47
2018-08-07T01:39:07.436Z,78.8
2018-08-07T01:40:07.460Z,78.13
2018-08-07T01:41:22.145Z,78.03
2018-08-07T01:42:07.511Z,78.23
2018-08-07T01:43:07.530Z,78.42
2018-08-07T01:44:07.590Z,78.52
2018-08-07T01:45:07.581Z,78.7
2018-08-07T01:46:07.347Z,78.7
2018-08-07T01:47:07.628Z,78.61
2018-08-07T01:48:07.651Z,79.28
2018-08-07T01:49:07.679Z,78.99
2018-08-07T01:50:07.802Z,79.09
2018-08-07T01:51:07.726Z,78.99
2018-08-07T01:53:07.769Z,79.57
2018-08-07T01:54:07.796Z,79.44
2018-08-07T01:55:07.826Z,79.91
2018-08-07T01:56:07.587Z,80.01
2018-08-07T01:57:22.530Z,80.4
2018-08-07T01:58:07.894Z,80.11
2018-08-07T01:59:07.916Z,80.49
2018-08-07T02:00:07.942Z,80.87
2018-08-07T02:01:07.709Z,80.2
2018-08-07T02:02:07.987Z,80.49
2018-08-07T02:03:07.756Z,81.26
2018-08-07T02:04:08.038Z,81.16
2018-08-07T02:05:08.060Z,81.26
2018-08-07T02:06:08.091Z,81.35
2018-08-07T02:07:08.113Z,81.64
2018-08-07T02:08:08.137Z,81.74
2018-08-07T02:10:08.182Z,81.74
2018-08-07T02:11:07.952Z,81.74
2018-08-07T02:12:22.893Z,82.41
2018-08-07T02:13:08.256Z,82.12
2018-08-07T02:14:08.281Z,82.41
2018-08-07T02:15:08.305Z,82.51
2018-08-07T02:16:08.328Z,82.89
2018-08-07T02:17:08.351Z,83.37
2018-08-07T02:18:08.378Z,83.27
2018-08-07T02:20:08.426Z,83.37
2018-08-07T02:21:08.447Z,83.42
2018-08-07T02:22:08.469Z,83.71
2018-08-07T02:24:08.519Z,83.91
2018-08-07T02:25:08.549Z,83.81
2018-08-07T02:26:08.310Z,83.52
2018-08-07T02:27:08.594Z,83.91
2018-08-07T02:28:08.357Z,84
2018-08-07T02:29:08.641Z,84.09
2018-08-07T02:30:08.668Z,84.28
2018-08-07T02:31:08.687Z,84.95
2018-08-07T02:32:08.713Z,84.48
2018-08-07T02:33:08.739Z,84.95
2018-08-07T02:34:08.762Z,85.34
2018-08-07T02:35:08.785Z,85.05
2018-08-07T02:36:08.809Z,85.63
2018-08-07T02:37:08.837Z,84.95
2018-08-07T02:38:08.856Z,84.86
2018-08-07T02:39:08.622Z,84.58
2018-08-07T02:40:08.922Z,84.67
2018-08-07T02:41:08.669Z,84.48
2018-08-07T02:42:08.951Z,84.28
2018-08-07T02:43:08.982Z,84.77
2018-08-07T02:44:23.660Z,84.48
2018-08-07T02:45:09.023Z,84.58
2018-08-07T02:46:09.047Z,84.58
2018-08-07T02:47:09.070Z,84.38
2018-08-07T02:48:09.101Z,84.67
2018-08-07T02:49:09.129Z,84.48
2018-08-07T02:50:09.142Z,85.05
2018-08-07T02:51:09.166Z,84.77
2018-08-07T02:52:09.248Z,85.34
2018-08-07T02:53:09.217Z,85.44
2018-08-07T02:54:09.240Z,85.68
2018-08-07T02:55:09.261Z,85.34
2018-08-07T02:56:09.290Z,85.3
2018-08-07T02:57:09.413Z,86.01
2018-08-07T02:58:09.078Z,85.82
2018-08-07T02:59:09.369Z,86.35
2018-08-07T03:00:24.045Z,86.25
2018-08-07T03:01:09.406Z,86.35
2018-08-07T03:02:09.169Z,86.83
2018-08-07T03:03:09.452Z,86.35
2018-08-07T03:04:09.476Z,86.74
2018-08-07T03:06:09.526Z,86.93
2018-08-07T03:07:09.648Z,86.93
2018-08-07T03:10:09.364Z,86.83
2018-08-07T03:11:09.641Z,86.83
2018-08-07T03:12:09.668Z,86.93
2018-08-07T03:13:09.688Z,87.41
2018-08-07T03:15:09.736Z,86.83
2018-08-07T03:16:24.422Z,87.5
2018-08-07T03:17:09.786Z,87.31
2018-08-07T03:18:09.813Z,87.31
2018-08-07T03:19:09.856Z,87.21
2018-08-07T03:20:09.599Z,87.6
2018-08-07T03:21:09.879Z,87.5
2018-08-07T03:22:09.647Z,87.12
2018-08-07T03:23:09.929Z,87.21
2018-08-07T03:24:09.949Z,87.37
2018-08-07T03:25:10.031Z,87.41
2018-08-07T03:27:10.038Z,87.5
2018-08-07T03:28:10.045Z,87.21
2018-08-07T03:29:10.071Z,87.6
2018-08-07T03:30:10.095Z,87.46
2018-08-07T03:31:10.116Z,87.55
2018-08-07T03:32:24.801Z,87.55
2018-08-07T03:33:09.907Z,87.46
2018-08-07T03:34:10.193Z,87.41
2018-08-07T03:35:10.219Z,87.12
2018-08-07T03:36:10.234Z,87.5
2018-08-07T03:37:10.258Z,86.93
2018-08-07T03:38:10.282Z,86.93
2018-08-07T03:39:10.309Z,87.41
2018-08-07T03:40:10.333Z,87.21
2018-08-07T03:42:10.373Z,87.5
2018-08-07T03:43:10.399Z,87.21
2018-08-07T03:44:10.477Z,87.5
2018-08-07T03:45:10.449Z,87.46
2018-08-07T03:46:10.475Z,87.41
2018-08-07T03:47:25.158Z,87.6
2018-08-07T03:48:10.521Z,87.21
2018-08-07T03:49:10.595Z,87.5
2018-08-07T03:50:10.567Z,87.41
2018-08-07T03:51:10.589Z,88.17
2018-08-07T03:52:10.614Z,88.32
2018-08-07T03:53:10.855Z,88.27
2018-08-07T03:54:10.661Z,88.08
2018-08-07T03:56:10.708Z,87.98
2018-08-07T03:58:10.498Z,88.08
2018-08-07T03:59:11.066Z,87.98
2018-08-07T04:00:10.546Z,87.7
2018-08-07T04:01:10.568Z,87.6
2018-08-07T04:02:10.594Z,87.6
2018-08-07T04:03:10.872Z,87.5
2018-08-07T04:04:10.893Z,87.7
2018-08-07T04:05:10.928Z,87.6
2018-08-07T04:06:10.686Z,87.7
2018-08-07T04:07:10.710Z,87.5
2018-08-07T04:08:11.006Z,87.41
2018-08-07T04:09:10.757Z,87.5
2018-08-07T04:10:11.048Z,86.93
2018-08-07T04:11:10.815Z,87.6
2018-08-07T04:12:11.091Z,87.21
2018-08-07T04:14:11.134Z,87.02
2018-08-07T04:15:11.158Z,87.5
2018-08-07T04:16:11.184Z,87.5
2018-08-07T04:17:11.204Z,87.21
2018-08-07T04:18:11.228Z,86.97
2018-08-07T04:19:25.915Z,86.78
2018-08-07T04:20:11.278Z,86.49
2018-08-07T04:21:11.302Z,86.88
2018-08-07T04:22:11.323Z,86.3
2018-08-07T04:23:11.348Z,85.72
2018-08-07T04:24:11.370Z,85.82
2018-08-07T04:25:11.397Z,85.82
2018-08-07T04:26:11.561Z,85.82
2018-08-07T04:27:11.446Z,86.01
2018-08-07T04:28:11.209Z,85.82
2018-08-07T04:29:11.491Z,85.34
2018-08-07T04:31:11.537Z,85.1
2018-08-07T04:32:11.563Z,85.48
2018-08-07T04:33:11.589Z,84.52
2018-08-07T04:34:11.351Z,84.91
2018-08-07T04:35:26.294Z,84.52
2018-08-07T04:36:11.659Z,84.52
2018-08-07T04:37:11.686Z,84.42
2018-08-07T04:38:11.700Z,84.33
2018-08-07T04:39:11.727Z,84.33
2018-08-07T04:40:11.749Z,84.42
2018-08-07T04:41:11.780Z,83.94
2018-08-07T04:42:11.798Z,84.04
2018-08-07T04:43:11.823Z,83.85
2018-08-07T04:44:11.844Z,84.04
2018-08-07T04:45:11.871Z,84.27
2018-08-07T04:46:11.905Z,83.51
2018-08-07T04:47:11.919Z,83.6
2018-08-07T04:48:11.942Z,83.41
2018-08-07T04:49:11.966Z,83.6
2018-08-07T04:50:11.990Z,82.93
2018-08-07T04:51:26.675Z,83.03
2018-08-07T04:52:12.039Z,82.74
2018-08-07T04:53:11.806Z,83.12
2018-08-07T04:54:12.085Z,82.59
2018-08-07T04:55:12.110Z,83.12
2018-08-07T04:56:11.875Z,82.54
2018-08-07T04:57:12.157Z,82.01
2018-08-07T04:58:12.319Z,82.4
2018-08-07T05:00:12.228Z,79.79
2018-08-07T05:01:12.262Z,75.63
2018-08-07T05:02:12.278Z,71.6
2018-08-07T05:03:12.304Z,68.1
2018-08-07T05:04:12.329Z,64.92
2018-08-07T05:06:12.391Z,60.21
2018-08-07T05:07:27.068Z,57.71
2018-08-07T05:08:12.434Z,56.81
2018-08-07T05:09:12.460Z,54.21
2018-08-07T05:10:12.486Z,53.27
2018-08-07T05:11:12.511Z,51.93
2018-08-07T05:12:12.543Z,50.43
2018-08-07T05:13:12.567Z,49.49
2018-08-07T05:14:12.652Z,48.44
2018-08-07T05:15:12.625Z,47.59
2018-08-07T05:16:12.654Z,47
2018-08-07T05:17:12.687Z,45.88
2018-08-07T05:19:12.742Z,43.71
2018-08-07T05:20:12.777Z,43.61
2018-08-07T05:21:12.547Z,42.46
2018-08-07T05:22:27.515Z,41.87
2018-08-07T05:23:12.868Z,41.5
2018-08-07T05:24:12.898Z,41.7
2018-08-07T05:25:12.933Z,41.21
2018-08-07T05:26:12.959Z,41.33
2018-08-07T05:27:13.000Z,41.6
2018-08-07T05:28:13.031Z,41.41
2018-08-07T05:29:13.059Z,42.46
2018-08-07T05:33:13.192Z,41.38
2018-08-07T05:34:12.965Z,40.14
2018-08-07T05:35:13.258Z,41.02
2018-08-07T05:36:13.295Z,40.89
2018-08-07T05:37:13.322Z,40.72
2018-08-07T05:38:13.357Z,39.57
2018-08-07T05:39:13.388Z,39.98
2018-08-07T05:40:13.452Z,39.39
2018-08-07T05:41:13.455Z,38.9
2018-08-07T05:42:13.562Z,38.34
2018-08-07T05:43:13.266Z,38.71
2018-08-07T05:44:13.559Z,38.9
2018-08-07T05:45:13.596Z,39.67
2018-08-07T05:46:13.641Z,39.45
2018-08-07T05:48:13.697Z,39.76
2018-08-07T05:49:13.728Z,39.28
2018-08-07T05:50:14.082Z,38.63
2018-08-07T05:51:14.514Z,38.16
2018-08-07T05:52:13.834Z,37.29
2018-08-07T05:53:13.867Z,37.51
2018-08-07T05:54:28.566Z,37.08
2018-08-07T05:55:14.058Z,37.12
2018-08-07T05:56:13.979Z,36.43
2018-08-07T05:57:13.748Z,35.58
2018-08-07T05:58:13.785Z,35.11
2018-08-07T05:59:14.120Z,35.1
2018-08-07T06:00:13.855Z,35.78
2018-08-07T06:01:14.147Z,35.66
2018-08-07T06:02:14.281Z,36.24
2018-08-07T06:05:14.291Z,37.18
2018-08-07T06:06:14.326Z,36.53
2018-08-07T06:07:14.360Z,36.63
2018-08-07T06:08:14.397Z,36.33
2018-08-07T06:09:14.433Z,36.24
2018-08-07T06:10:29.132Z,35.76
2018-08-07T06:11:14.506Z,35.11
2018-08-07T06:12:14.541Z,34.72
2018-08-07T06:13:14.576Z,34.44
2018-08-07T06:14:14.613Z,35.11
2018-08-07T06:15:14.649Z,35.11
2018-08-07T06:16:14.685Z,34.42
2018-08-07T06:17:14.720Z,34.06
2018-08-07T06:18:14.756Z,33.48
2018-08-07T06:19:14.982Z,33.22
2018-08-07T06:20:14.825Z,33.28
2018-08-07T06:21:14.869Z,33.1
2018-08-07T06:22:14.951Z,32.72
2018-08-07T06:23:14.685Z,32.24
2018-08-07T06:24:14.976Z,32.07
2018-08-07T06:25:15.025Z,31.46
2018-08-07T06:26:29.713Z,31.57
2018-08-07T06:27:15.092Z,31.28
2018-08-07T06:28:15.124Z,31.67
2018-08-07T06:29:14.903Z,31.07
2018-08-07T06:30:15.199Z,30.97
2018-08-07T06:31:15.262Z,31.84
2018-08-07T06:32:15.272Z,31.94
2018-08-07T06:33:15.310Z,31.26
2018-08-07T06:34:15.090Z,30.98
2018-08-07T06:36:15.418Z,30.88
2018-08-07T06:38:15.495Z,31.38
2018-08-07T06:39:15.534Z,31.28
2018-08-07T06:40:15.582Z,30.4
2018-08-07T06:41:15.606Z,30.6
2018-08-07T06:42:30.313Z,30.51
2018-08-07T06:43:15.683Z,30.69
2018-08-07T06:44:15.726Z,31.18
2018-08-07T06:45:15.758Z,30.87
2018-08-07T06:46:15.538Z,29.82
2018-08-07T06:48:16.058Z,30.19
2018-08-07T06:49:15.909Z,30.88
2018-08-07T06:50:16.125Z,30
2018-08-07T06:51:15.985Z,30.6
2018-08-07T06:52:16.032Z,30.43
2018-08-07T06:53:16.063Z,30.03
2018-08-07T06:54:16.102Z,29.46
2018-08-07T06:55:16.138Z,29.74
2018-08-07T06:56:16.176Z,30.02
2018-08-07T06:57:30.880Z,30.77
2018-08-07T06:58:15.996Z,30.97
2018-08-07T06:59:16.290Z,29.9
2018-08-07T07:00:16.070Z,29.83
2018-08-07T07:01:16.378Z,29.83
2018-08-07T07:02:16.147Z,29.9
2018-08-07T07:03:16.449Z,29.9
2018-08-07T07:04:16.229Z,29.71
2018-08-07T07:05:16.526Z,29.82
2018-08-07T07:06:16.561Z,29.74
2018-08-07T07:07:16.594Z,29.82
2018-08-07T07:09:16.416Z,29.44
2018-08-07T07:10:16.728Z,29.62
2018-08-07T07:11:16.491Z,29.93
2018-08-07T07:12:16.530Z,29.82
2018-08-07T07:13:16.569Z,30.1
2018-08-07T07:14:16.862Z,29.71
2018-08-07T07:15:16.903Z,29.34
2018-08-07T07:16:16.945Z,28.88
2018-08-07T07:18:17.017Z,28.99
2018-08-07T07:19:17.060Z,27.92
2018-08-07T07:20:17.091Z,27.94
2018-08-07T07:21:17.128Z,26.86
2018-08-07T07:22:17.171Z,26.09
2018-08-07T07:23:17.207Z,26.42
2018-08-07T07:24:17.248Z,26.01
2018-08-07T07:25:17.288Z,26.21
2018-08-07T07:26:17.324Z,26.32
2018-08-07T07:27:17.367Z,25.91
2018-08-07T07:28:17.403Z,25.81
2018-08-07T07:29:32.104Z,26.6
2018-08-07T07:30:17.486Z,27
2018-08-07T07:31:17.519Z,26.31
2018-08-07T07:32:17.556Z,26.59
2018-08-07T07:33:17.598Z,26.1
2018-08-07T07:34:17.946Z,26.02
2018-08-07T07:35:17.672Z,25.04
2018-08-07T07:36:17.711Z,25.96
2018-08-07T07:37:17.753Z,25.63
2018-08-07T07:38:17.793Z,25.54
2018-08-07T07:39:17.829Z,25.84
2018-08-07T07:41:17.910Z,25.55
2018-08-07T07:42:17.948Z,25.63
2018-08-07T07:43:17.984Z,24.95
2018-08-07T07:44:18.023Z,24.46
2018-08-07T07:45:32.729Z,24.27
2018-08-07T07:46:18.108Z,23.88
2018-08-07T07:47:18.141Z,23.89
2018-08-07T07:48:17.926Z,24.67
2018-08-07T07:49:18.222Z,24.18
2018-08-07T07:50:18.259Z,24.85
2018-08-07T07:51:18.043Z,25.12
2018-08-07T07:52:18.341Z,24.93
2018-08-07T07:53:18.379Z,24.24
2018-08-07T07:54:19.423Z,24.33
2018-08-07T07:55:18.461Z,24.54
2018-08-07T07:56:18.537Z,24.24
2018-08-07T07:57:18.535Z,24.24
2018-08-07T07:58:18.573Z,24.63
2018-08-07T07:59:18.612Z,24.35
2018-08-07T08:00:18.662Z,24.32
2018-08-07T08:01:33.358Z,24.54
2018-08-07T08:02:18.734Z,24.62
2018-08-07T08:03:18.772Z,24.32
2018-08-07T08:04:18.814Z,25.14
2018-08-07T08:05:19.041Z,25.21
2018-08-07T08:06:18.629Z,24.73
2018-08-07T08:07:18.925Z,24.52
2018-08-07T08:08:18.970Z,24.63
2018-08-07T08:09:19.006Z,24.07
2018-08-07T08:10:19.049Z,23.68
2018-08-07T08:11:19.083Z,23.67
2018-08-07T08:12:19.121Z,24.07
2018-08-07T08:13:19.159Z,23.36
2018-08-07T08:14:19.197Z,23.68
2018-08-07T08:15:19.237Z,23.48
2018-08-07T08:16:19.281Z,23.77
2018-08-07T08:17:33.984Z,23.57
2018-08-07T08:18:19.356Z,23.28
2018-08-07T08:19:19.137Z,22.5
2018-08-07T08:20:19.434Z,23.58
2018-08-07T08:21:19.472Z,23.36
2018-08-07T08:22:19.524Z,22.89
2018-08-07T08:23:19.552Z,22.51
2018-08-07T08:24:19.594Z,21.92
2018-08-07T08:25:19.630Z,22.33
2018-08-07T08:26:19.663Z,22.13
2018-08-07T08:27:19.702Z,22.22
2018-08-07T08:28:19.741Z,22.33
2018-08-07T08:29:20.056Z,22.33
2018-08-07T08:30:19.837Z,22.82
2018-08-07T08:31:19.859Z,23.41
2018-08-07T08:32:34.564Z,23.49
2018-08-07T08:33:19.938Z,23.59
2018-08-07T08:34:19.976Z,22.51
2018-08-07T08:35:20.153Z,22.11
2018-08-07T08:36:19.796Z,22.31
2018-08-07T08:37:20.096Z,21.52
2018-08-07T08:39:20.167Z,21.83
2018-08-07T08:40:20.207Z,21.53
2018-08-07T08:41:20.245Z,21.82
2018-08-07T08:43:20.324Z,21.22
2018-08-07T08:44:20.359Z,21.43
2018-08-07T08:45:20.407Z,22
2018-08-07T08:46:20.437Z,21.62
2018-08-07T08:47:20.480Z,21.42
2018-08-07T08:48:20.640Z,21.52
2018-08-07T08:49:20.553Z,21.73
2018-08-07T08:50:20.601Z,22.03
2018-08-07T08:51:20.628Z,21.82
2018-08-07T08:52:20.672Z,21.22
2018-08-07T08:53:20.706Z,20.84
2018-08-07T08:54:20.745Z,20.15
2018-08-07T08:55:20.779Z,20.84
2018-08-07T08:56:20.825Z,20.75
2018-08-07T08:57:20.861Z,20.54
2018-08-07T09:00:20.971Z,20.37
2018-08-07T09:01:21.014Z,20.46
2018-08-07T09:02:21.053Z,20.65
2018-08-07T09:03:21.147Z,20.65
2018-08-07T09:04:35.797Z,20.95
2018-08-07T09:05:21.171Z,20.46
2018-08-07T09:06:21.207Z,20.56
2018-08-07T09:07:21.239Z,20.06
2018-08-07T09:08:21.023Z,20.46
2018-08-07T09:09:21.060Z,20.26
2018-08-07T09:10:21.589Z,20.54
2018-08-07T09:11:21.515Z,20.54
2018-08-07T09:12:21.430Z,20.46
2018-08-07T09:13:21.473Z,20.36
2018-08-07T09:15:21.542Z,19.97
2018-08-07T09:16:21.583Z,20.48
2018-08-07T09:17:21.634Z,20.27
2018-08-07T09:18:21.656Z,20.37
2018-08-07T09:19:21.731Z,20.18
2018-08-07T09:20:36.400Z,20.57
2018-08-07T09:21:21.772Z,20.65
2018-08-07T09:22:21.552Z,20.36
2018-08-07T09:23:21.849Z,21.14
2018-08-07T09:24:21.930Z,21.33
2018-08-07T09:25:22.215Z,21.42
2018-08-07T09:26:21.960Z,21.12
2018-08-07T09:27:21.997Z,21.13
2018-08-07T09:28:22.038Z,21.13
2018-08-07T09:29:21.817Z,20.95
2018-08-07T09:30:22.115Z,20.36
2018-08-07T09:31:22.151Z,20.48
2018-08-07T09:32:21.930Z,20.37
2018-08-07T09:33:22.247Z,20.45
2018-08-07T09:34:22.265Z,20.64
2018-08-07T09:35:22.298Z,20.44
2018-08-07T09:36:36.999Z,21.13
2018-08-07T09:37:22.372Z,21.22
2018-08-07T09:38:22.153Z,21.42
2018-08-07T09:39:22.189Z,21.33
2018-08-07T09:40:22.490Z,21.41
2018-08-07T09:41:22.273Z,21.33
2018-08-07T09:42:22.557Z,21.13
2018-08-07T09:43:22.338Z,21.24
2018-08-07T09:44:22.633Z,21.22
2018-08-07T09:45:22.667Z,21.63
2018-08-07T09:46:22.447Z,20.94
2018-08-07T09:47:22.745Z,20.45
2018-08-07T09:48:22.784Z,21.13
2018-08-07T09:49:22.816Z,21.43
2018-08-07T09:50:22.852Z,21.43
2018-08-07T09:51:22.888Z,20.73
2018-08-07T09:52:37.589Z,20.54
2018-08-07T09:53:22.963Z,20.26
2018-08-07T09:54:23.005Z,20.65
2018-08-07T09:55:23.038Z,20.46
2018-08-07T09:56:23.075Z,20.86
2018-08-07T09:57:23.109Z,20.86
2018-08-07T09:58:22.887Z,20.57
2018-08-07T09:59:23.178Z,19.87
2018-08-07T10:01:22.998Z,19.8
2018-08-07T10:02:23.391Z,19.99
2018-08-07T10:03:23.331Z,19.98
2018-08-07T10:04:23.363Z,19.88
2018-08-07T10:06:23.438Z,21.34
2018-08-07T10:07:38.139Z,21.14
2018-08-07T10:08:23.513Z,21.13
2018-08-07T10:09:23.549Z,20.65
2018-08-07T10:10:23.583Z,20.17
2018-08-07T10:11:23.622Z,20.87
2018-08-07T10:12:23.711Z,21.52
2018-08-07T10:13:23.694Z,21.13
2018-08-07T10:14:23.730Z,21.21
2018-08-07T10:15:23.767Z,21.41
2018-08-07T10:16:23.902Z,21.71
2018-08-07T10:17:23.836Z,21.92
2018-08-07T10:18:23.874Z,21.32
2018-08-07T10:19:23.651Z,21.52
2018-08-07T10:20:23.945Z,21.24
2018-08-07T10:21:23.980Z,21.33
2018-08-07T10:22:24.018Z,20.54
2018-08-07T10:23:24.211Z,20.76
2018-08-07T10:24:24.088Z,20.54
2018-08-07T10:25:24.128Z,20.56
2018-08-07T10:26:24.160Z,20.45
2018-08-07T10:27:24.196Z,19.67
2018-08-07T10:28:24.238Z,20.65
2018-08-07T10:29:24.269Z,20.65
2018-08-07T10:30:24.385Z,20.84
2018-08-07T10:31:24.387Z,21.52
2018-08-07T10:32:24.380Z,21.82
2018-08-07T10:33:24.413Z,22.29
2018-08-07T10:35:24.494Z,23.14
2018-08-07T10:36:24.517Z,23.33
2018-08-07T10:37:24.560Z,23.63
2018-08-07T10:38:24.588Z,23.93
2018-08-07T10:39:39.289Z,23.92
2018-08-07T10:40:24.406Z,23.92
2018-08-07T10:41:24.499Z,23.92
2018-08-07T10:42:24.477Z,24.41
2018-08-07T10:43:25.017Z,24.19
2018-08-07T10:44:24.820Z,24.68
2018-08-07T10:45:24.836Z,24.58
2018-08-07T10:46:24.983Z,25.18
2018-08-07T10:47:24.651Z,25.08
2018-08-07T10:48:24.945Z,25.39
2018-08-07T10:50:25.014Z,25.56
2018-08-07T10:51:25.047Z,25.27
2018-08-07T10:53:25.119Z,25.55
2018-08-07T10:54:25.166Z,25.35
2018-08-07T10:55:39.853Z,25.46
2018-08-07T10:56:24.972Z,25.37
2018-08-07T10:57:25.257Z,26.06
2018-08-07T10:58:25.531Z,26.04
2018-08-07T10:59:25.085Z,25.35
2018-08-07T11:00:25.362Z,26.25
2018-08-07T11:01:25.401Z,25.74
2018-08-07T11:02:25.436Z,25.65
2018-08-07T11:04:25.517Z,25.46
2018-08-07T11:05:25.535Z,25.46
2018-08-07T11:06:25.573Z,25.18
2018-08-07T11:07:25.605Z,25.56
2018-08-07T11:08:25.382Z,25.57
2018-08-07T11:09:25.675Z,25.19
2018-08-07T11:10:25.448Z,25.48
2018-08-07T11:11:40.404Z,25.29
2018-08-07T11:12:25.788Z,25.48
2018-08-07T11:13:25.809Z,25.86
2018-08-07T11:14:25.843Z,25.67
2018-08-07T11:15:25.877Z,25.87
2018-08-07T11:16:25.910Z,26.07
2018-08-07T11:17:25.944Z,25.48
2018-08-07T11:18:25.984Z,25.38
2018-08-07T11:19:26.013Z,25.67
2018-08-07T11:20:26.054Z,24.69
2018-08-07T11:21:26.082Z,24.68
2018-08-07T11:22:26.118Z,24.19
2018-08-07T11:23:26.149Z,24.3
2018-08-07T11:24:26.048Z,25.08
2018-08-07T11:25:26.219Z,24.98
2018-08-07T11:26:26.252Z,24.97
2018-08-07T11:27:40.947Z,24.88
2018-08-07T11:28:26.318Z,24.68
2018-08-07T11:29:26.354Z,25.27
2018-08-07T11:30:26.391Z,25.07
2018-08-07T11:31:26.419Z,25.74
2018-08-07T11:32:26.455Z,25.73
2018-08-07T11:33:26.486Z,26.31
2018-08-07T11:34:26.519Z,26.23
2018-08-07T11:35:26.555Z,25.45
2018-08-07T11:36:26.591Z,25.76
2018-08-07T11:38:26.657Z,25.46
2018-08-07T11:39:26.432Z,25.38
2018-08-07T11:40:26.723Z,25.18
2018-08-07T11:42:41.488Z,24.58
2018-08-07T11:43:26.823Z,24.09
2018-08-07T11:44:26.857Z,23.99
2018-08-07T11:45:26.891Z,23.6
2018-08-07T11:46:26.924Z,23.6
2018-08-07T11:47:26.956Z,23.61
2018-08-07T11:48:27.140Z,24.01
2018-08-07T11:49:26.768Z,24.29
2018-08-07T11:50:27.061Z,24.49
2018-08-07T11:51:26.834Z,24.68
2018-08-07T11:52:27.124Z,25.55
2018-08-07T11:53:26.905Z,25.37
2018-08-07T11:54:27.193Z,25.37
2018-08-07T11:55:27.275Z,25.07
2018-08-07T11:56:27.380Z,23.3
2018-08-07T11:57:27.291Z,23.99
2018-08-07T11:58:27.325Z,23.29
2018-08-07T11:59:27.363Z,23.21
2018-08-07T12:00:27.397Z,22.81
2018-08-07T12:01:27.426Z,23.49
2018-08-07T12:02:27.598Z,23
2018-08-07T12:03:27.494Z,23.59
2018-08-07T12:04:27.268Z,23.97
2018-08-07T12:05:27.561Z,23.98
2018-08-07T12:06:27.598Z,24.08
2018-08-07T12:07:27.626Z,23.97
2018-08-07T12:09:27.435Z,24.26
2018-08-07T12:10:27.726Z,23.87
2018-08-07T12:11:27.758Z,23.39
2018-08-07T12:12:27.535Z,22.8
2018-08-07T12:13:27.824Z,23.1
2018-08-07T12:14:42.521Z,23.48
2018-08-07T12:15:27.893Z,23.59
2018-08-07T12:16:27.923Z,22.81
2018-08-07T12:17:27.698Z,22.2
2018-08-07T12:18:27.988Z,21.42
2018-08-07T12:19:28.041Z,21.22
2018-08-07T12:20:28.057Z,21.51
2018-08-07T12:21:28.090Z,21.23
2018-08-07T12:22:28.123Z,21.62
2018-08-07T12:23:28.164Z,21.62
2018-08-07T12:24:27.934Z,21.71
2018-08-07T12:25:27.963Z,21.23
2018-08-07T12:26:27.997Z,21.23
2018-08-07T12:27:28.292Z,20.54
2018-08-07T12:28:28.321Z,20.64
2018-08-07T12:29:28.363Z,20.34
2018-08-07T12:30:43.052Z,20.24
2018-08-07T12:31:28.425Z,20.53
2018-08-07T12:32:28.453Z,20.73
2018-08-07T12:33:28.589Z,21.02
2018-08-07T12:34:28.526Z,20.83
2018-08-07T12:35:28.553Z,20.73
2018-08-07T12:37:28.617Z,21.32
2018-08-07T12:39:28.894Z,21.51
2018-08-07T12:40:28.718Z,20.73
2018-08-07T12:41:28.751Z,21.6
2018-08-07T12:42:28.788Z,21.6
2018-08-07T12:43:28.816Z,21.69
2018-08-07T12:44:28.593Z,21.5
2018-08-07T12:45:28.883Z,22.27
2018-08-07T12:46:43.638Z,22.47
2018-08-07T12:47:28.950Z,22.37
2018-08-07T12:48:28.986Z,22.77
2018-08-07T12:49:29.020Z,22.86
2018-08-07T12:50:28.794Z,22.28
2018-08-07T12:51:28.823Z,22.09
2018-08-07T12:52:29.115Z,22.28
2018-08-07T12:53:28.891Z,22.38
2018-08-07T12:55:29.213Z,22.28
2018-08-07T12:56:29.257Z,22.59
2018-08-07T12:57:29.279Z,22.28
2018-08-07T12:58:29.313Z,22.88
2018-08-07T12:59:29.344Z,23.07
2018-08-07T13:00:29.395Z,22.67
2018-08-07T13:01:29.152Z,22.88
2018-08-07T13:02:44.108Z,22.88
2018-08-07T13:03:29.482Z,22.97
2018-08-07T13:04:29.521Z,23.27
2018-08-07T13:05:29.557Z,23.47
2018-08-07T13:06:29.574Z,23.27
2018-08-07T13:07:29.352Z,22.97
2018-08-07T13:08:29.642Z,22.97
2018-08-07T13:09:29.674Z,22.58
2018-08-07T13:10:29.705Z,22.49
2018-08-07T13:12:29.769Z,22.49
2018-08-07T13:13:29.805Z,22.19
2018-08-07T13:14:29.936Z,21.71
2018-08-07T13:15:29.875Z,21.61
2018-08-07T13:16:29.648Z,21.81
2018-08-07T13:17:44.602Z,22.89
2018-08-07T13:18:29.974Z,23
2018-08-07T13:19:30.003Z,22.11
2018-08-07T13:20:30.037Z,22.02
2018-08-07T13:21:30.068Z,22.89
2018-08-07T13:22:29.845Z,22.12
2018-08-07T13:23:30.134Z,22.3
2018-08-07T13:24:30.167Z,22.7
2018-08-07T13:25:30.202Z,22.78
2018-08-07T13:26:30.325Z,23.38
2018-08-07T13:27:30.265Z,22.78
2018-08-07T13:28:30.300Z,22.78
2018-08-07T13:29:30.331Z,22.3
2018-08-07T13:30:30.373Z,22.19
2018-08-07T13:31:30.561Z,22.38
2018-08-07T13:32:30.433Z,22.58
2018-08-07T13:33:30.466Z,22.28
2018-08-07T13:34:30.494Z,22.78
2018-08-07T13:35:30.533Z,22.78
2018-08-07T13:36:30.566Z,22.3
2018-08-07T13:37:30.594Z,22.58
2018-08-07T13:38:30.626Z,23.27
2018-08-07T13:39:30.659Z,23.18
2018-08-07T13:40:30.692Z,22.59
2018-08-07T13:41:30.727Z,22.3
2018-08-07T13:43:30.791Z,22.69
2018-08-07T13:44:30.822Z,22.49
2018-08-07T13:45:30.858Z,23.17
2018-08-07T13:46:30.887Z,23.07
2018-08-07T13:47:30.925Z,22.88